createdAt,value
2024-02-19T00:04:13.446Z,5.10
2024-02-19T00:09:17.349Z,5.11
2024-02-19T00:14:23.706Z,5.13
2024-02-19T00:19:27.356Z,5.17
2024-02-19T00:24:33.627Z,5.20
2024-02-19T00:29:36.843Z,5.17
2024-02-19T00:34:53.215Z,5.12
2024-02-19T00:40:16.799Z,5.05
2024-02-19T00:45:22.760Z,5.01
2024-02-19T00:50:26.256Z,4.97
2024-02-19T00:55:29.571Z,4.91
2024-02-19T01:00:33.274Z,4.85
2024-02-19T01:05:42.764Z,4.82
2024-02-19T01:10:46.088Z,4.78
2024-02-19T01:16:12.686Z,4.73
2024-02-19T01:21:25.240Z,4.67
2024-02-19T01:26:31.869Z,4.64
2024-02-19T01:31:43.813Z,4.63
2024-02-19T01:36:50.453Z,4.63
2024-02-19T01:41:56.892Z,4.64
2024-02-19T01:47:03.247Z,4.64
2024-02-19T01:52:10.789Z,4.65
2024-02-19T01:57:14.098Z,4.66
2024-02-19T02:02:23.487Z,4.66
2024-02-19T02:07:32.332Z,4.67
2024-02-19T02:12:46.908Z,4.71
2024-02-19T02:17:52.591Z,4.73
2024-02-19T02:22:58.366Z,4.77
2024-02-19T02:28:01.770Z,4.80
2024-02-19T02:33:05.892Z,4.85
2024-02-19T02:38:31.052Z,4.90
2024-02-19T02:43:47.563Z,4.95
2024-02-19T02:48:54.319Z,4.99
2024-02-19T02:54:03.731Z,5.04
2024-02-19T02:59:19.852Z,5.09
2024-02-19T03:04:23.208Z,5.17
2024-02-19T03:10:04.733Z,5.25
2024-02-19T03:16:14.607Z,5.32
2024-02-19T03:21:51.238Z,5.35
2024-02-19T03:27:06.325Z,5.38
2024-02-19T03:32:12.678Z,5.39
2024-02-19T03:37:17.231Z,5.42
2024-02-19T03:42:21.131Z,5.44
2024-02-19T03:47:53.776Z,5.45
2024-02-19T03:53:02.994Z,5.47
2024-02-19T03:58:06.538Z,5.49
2024-02-19T04:03:10.010Z,5.51
2024-02-19T04:08:20.912Z,5.52
2024-02-19T04:13:24.866Z,5.53
2024-02-19T04:18:31.301Z,5.56
2024-02-19T04:23:37.815Z,5.59
2024-02-19T04:28:54.866Z,5.62
2024-02-19T04:34:31.256Z,5.64
2024-02-19T04:39:35.381Z,5.66
2024-02-19T04:44:40.734Z,5.69
2024-02-19T04:49:44.615Z,5.70
2024-02-19T04:54:57.010Z,5.72
2024-02-19T05:00:41.947Z,5.73
2024-02-19T05:06:14.808Z,5.75
2024-02-19T05:11:38.809Z,5.75
2024-02-19T05:16:45.320Z,5.76
2024-02-19T05:21:49.112Z,5.76
2024-02-19T05:26:52.610Z,5.77
2024-02-19T05:31:56.140Z,5.78
2024-02-19T05:37:16.963Z,5.80
2024-02-19T05:42:20.182Z,5.82
2024-02-19T05:47:23.551Z,5.83
2024-02-19T05:52:27.539Z,5.86
2024-02-19T05:57:34.362Z,5.87
2024-02-19T06:03:06.369Z,5.89
2024-02-19T06:08:33.522Z,5.91
2024-02-19T06:13:36.917Z,5.91
2024-02-19T06:18:40.642Z,5.94
2024-02-19T06:23:44.061Z,5.97
2024-02-19T06:28:47.893Z,6.00
2024-02-19T06:34:00.838Z,6.02
2024-02-19T06:39:47.528Z,6.04
2024-02-19T06:45:00.628Z,6.05
2024-02-19T06:50:04.943Z,6.05
2024-02-19T06:55:08.839Z,6.05
2024-02-19T07:00:13.726Z,6.07
2024-02-19T07:05:17.891Z,6.08
2024-02-19T07:10:21.676Z,6.11
2024-02-19T07:15:32.911Z,6.11
2024-02-19T07:20:39.042Z,6.12
2024-02-19T07:25:55.394Z,6.13
2024-02-19T07:31:00.052Z,6.14
2024-02-19T07:36:04.158Z,6.17
2024-02-19T07:41:15.910Z,6.19
2024-02-19T07:46:23.633Z,6.23
2024-02-19T07:51:27.423Z,6.28
2024-02-19T07:56:33.606Z,6.37
2024-02-19T08:01:47.679Z,6.46
2024-02-19T08:06:57.577Z,6.52
2024-02-19T08:12:04.073Z,6.52
2024-02-19T08:17:10.627Z,6.49
2024-02-19T08:22:14.103Z,6.44
2024-02-19T08:27:24.990Z,6.40
2024-02-19T08:32:40.789Z,6.22
2024-02-19T08:37:54.987Z,6.02
2024-02-19T08:43:12.167Z,5.90
2024-02-19T08:48:18.854Z,5.93
2024-02-19T08:53:22.792Z,5.98
2024-02-19T08:58:27.109Z,5.98
2024-02-19T09:03:59.811Z,6.05
2024-02-19T09:09:10.377Z,6.05
2024-02-19T09:14:13.743Z,5.97
2024-02-19T09:19:19.786Z,5.82
2024-02-19T09:24:23.535Z,5.78
2024-02-19T09:29:26.892Z,5.75
2024-02-19T09:34:30.990Z,5.73
2024-02-19T09:39:34.482Z,5.75
2024-02-19T09:44:38.080Z,5.72
2024-02-19T09:49:45.327Z,5.68
2024-02-19T09:54:58.919Z,5.58
2024-02-19T10:00:05.939Z,5.55
2024-02-19T10:05:30.392Z,5.55
2024-02-19T10:10:39.750Z,5.63
2024-02-19T10:15:46.312Z,5.69
2024-02-19T10:20:54.606Z,5.70
2024-02-19T10:25:58.025Z,5.68
2024-02-19T10:31:04.066Z,5.68
2024-02-19T10:36:08.934Z,5.74
2024-02-19T10:41:15.256Z,5.74
2024-02-19T10:46:25.890Z,5.77
2024-02-19T10:51:30.582Z,5.75
2024-02-19T10:56:40.994Z,5.69
2024-02-19T11:01:52.346Z,5.65
2024-02-19T11:07:27.520Z,5.64
2024-02-19T11:12:32.406Z,5.69
2024-02-19T11:17:35.949Z,5.62
2024-02-19T11:23:01.169Z,5.58
2024-02-19T11:28:36.879Z,5.50
2024-02-19T11:33:41.075Z,5.41
2024-02-19T11:38:57.199Z,5.37
2024-02-19T11:44:06.095Z,5.26
2024-02-19T11:49:19.676Z,5.17
2024-02-19T11:54:43.276Z,5.17
2024-02-19T11:59:46.826Z,5.17
2024-02-19T12:04:57.943Z,5.17
2024-02-19T12:10:11.599Z,5.16
2024-02-19T12:15:18.010Z,5.19
2024-02-19T12:20:24.977Z,5.14
2024-02-19T12:25:34.416Z,5.06
2024-02-19T12:30:40.720Z,5.01
2024-02-19T12:36:31.286Z,5.02
2024-02-19T12:41:39.099Z,4.98
2024-02-19T12:46:46.315Z,4.91
2024-02-19T12:51:52.901Z,4.93
2024-02-19T12:57:07.603Z,5.01
2024-02-19T13:02:15.925Z,5.04
2024-02-19T13:07:19.589Z,5.09
2024-02-19T13:12:23.503Z,5.08
2024-02-19T13:17:32.820Z,5.09
2024-02-19T13:22:43.956Z,5.14
2024-02-19T13:27:47.303Z,5.06
2024-02-19T13:32:53.792Z,5.02
2024-02-19T13:37:58.238Z,4.93
2024-02-19T13:43:02.142Z,4.83
2024-02-19T13:48:07.347Z,4.79
2024-02-19T13:53:19.512Z,4.77
2024-02-19T13:58:44.050Z,4.78
2024-02-19T14:03:49.447Z,4.77
2024-02-19T14:08:53.052Z,4.80
2024-02-19T14:14:02.074Z,4.84
2024-02-19T14:19:07.215Z,4.91
2024-02-19T14:24:20.237Z,4.96
2024-02-19T14:29:31.166Z,4.98
2024-02-19T14:34:34.862Z,4.97
2024-02-19T14:39:40.227Z,5.05
2024-02-19T14:44:43.698Z,5.09
2024-02-19T14:49:50.364Z,5.06
2024-02-19T14:54:57.618Z,5.06
2024-02-19T15:00:01.016Z,5.05
2024-02-19T15:05:06.841Z,5.09
2024-02-19T15:10:11.320Z,5.09
2024-02-19T15:15:17.571Z,5.12
2024-02-19T15:20:22.640Z,5.14
2024-02-19T15:25:26.363Z,5.15
2024-02-19T15:30:30.194Z,5.18
2024-02-19T15:35:34.825Z,5.18
2024-02-19T15:40:38.371Z,5.16
2024-02-19T15:45:44.957Z,5.15
2024-02-19T15:50:48.884Z,5.17
2024-02-19T15:55:53.812Z,5.18
2024-02-19T16:01:01.496Z,5.19
2024-02-19T16:06:14.197Z,5.23
2024-02-19T16:11:17.888Z,5.26
2024-02-19T16:16:21.989Z,5.28
2024-02-19T16:21:28.968Z,5.29
2024-02-19T16:26:32.920Z,5.31
2024-02-19T16:31:36.798Z,5.32
2024-02-19T16:36:40.258Z,5.36
2024-02-19T16:41:43.830Z,5.38
2024-02-19T16:46:47.472Z,5.41
2024-02-19T16:52:00.609Z,5.44
2024-02-19T16:57:24.782Z,5.48
2024-02-19T17:02:36.018Z,5.50
2024-02-19T17:08:04.144Z,5.51
2024-02-19T17:13:12.179Z,5.52
2024-02-19T17:18:16.406Z,5.52
2024-02-19T17:23:25.571Z,5.52
2024-02-19T17:28:42.170Z,5.53
2024-02-19T17:33:46.143Z,5.56
2024-02-19T17:38:50.122Z,5.56
2024-02-19T17:43:56.991Z,5.56
2024-02-19T17:49:21.210Z,5.55
2024-02-19T17:54:27.918Z,5.53
2024-02-19T17:59:35.843Z,5.53
2024-02-19T18:04:55.501Z,5.53
2024-02-19T18:09:59.833Z,5.51
2024-02-19T18:15:12.523Z,5.50
2024-02-19T18:20:54.669Z,5.50
2024-02-19T18:26:06.955Z,5.52
2024-02-19T18:31:14.872Z,5.51
2024-02-19T18:36:36.188Z,5.49
2024-02-19T18:41:43.765Z,5.47
2024-02-19T18:47:01.306Z,5.42
2024-02-19T18:52:06.918Z,5.37
2024-02-19T18:57:10.616Z,5.36
2024-02-19T19:02:46.604Z,5.34
2024-02-19T19:08:01.784Z,5.32
2024-02-19T19:13:08.565Z,5.29
2024-02-19T19:18:15.027Z,5.26
2024-02-19T19:23:26.771Z,5.28
2024-02-19T19:29:17.399Z,5.32
2024-02-19T19:34:48.071Z,5.42
2024-02-19T19:40:07.518Z,5.47
2024-02-19T19:45:23.178Z,5.48
2024-02-19T19:51:07.102Z,5.52
2024-02-19T19:57:11.928Z,5.56
2024-02-19T20:02:52.372Z,5.58
2024-02-19T20:08:06.348Z,5.61
2024-02-19T20:13:30.751Z,5.63
2024-02-19T20:19:26.306Z,5.65
2024-02-19T20:25:07.565Z,5.67
2024-02-19T20:30:38.790Z,5.68
2024-02-19T20:36:10.687Z,5.68
2024-02-19T20:42:02.646Z,5.64
2024-02-19T20:47:35.169Z,5.63
2024-02-19T20:53:15.443Z,5.57
2024-02-19T20:58:27.746Z,5.51
2024-02-19T21:04:09.852Z,5.45
2024-02-19T21:16:31.828Z,5.37
2024-02-19T21:23:15.379Z,5.34
2024-02-19T21:29:17.701Z,5.34
2024-02-19T21:36:06.358Z,5.42
2024-02-19T21:41:17.852Z,5.55
2024-02-19T21:47:19.326Z,5.60
2024-02-19T21:52:44.478Z,5.67
2024-02-19T21:57:52.534Z,5.68
2024-02-19T22:03:17.479Z,5.66
2024-02-19T22:08:42.908Z,5.70
2024-02-19T22:14:20.765Z,5.73
2024-02-19T22:19:46.816Z,5.79
2024-02-19T22:24:59.027Z,5.82
2024-02-19T22:31:07.618Z,5.84
2024-02-19T22:36:16.501Z,5.85
2024-02-19T22:41:48.235Z,5.85
2024-02-19T22:47:50.259Z,5.86
2024-02-19T22:53:20.615Z,5.88
2024-02-19T22:59:14.771Z,5.88
2024-02-19T23:05:21.092Z,5.88
2024-02-19T23:11:06.615Z,5.90
2024-02-19T23:17:07.685Z,5.90
2024-02-19T23:23:19.107Z,5.91
2024-02-19T23:29:33.434Z,5.92
2024-02-19T23:35:41.075Z,5.97
2024-02-19T23:41:54.445Z,5.99
2024-02-19T23:48:13.430Z,6.03
2024-02-19T23:53:48.456Z,6.05
2024-02-19T23:59:46.656Z,6.05
